Time;durP1;ratioP1;P1;durP2;ratioP2;P2;SDS_P1;SDS_P2;PMS_P1;PMS_P2;Temp;Humidity;BMP_temperature;BMP_pressure;BME280_temperature;BME280_humidity;BME280_pressure;Samples;Min_cycle;Max_cycle;Signal;HPM_P1;HPM_P2
2023/08/08 00:00:03;;;;;;;0.88;0.50;;;;;;;26.47;32.20;98331.34;4975763;28;20474;-83
2023/08/08 00:02:28;;;;;;;1.60;0.50;;;;;;;26.36;32.07;98320.41;4959859;28;20481;-71
2023/08/08 00:04:54;;;;;;;0.70;0.40;;;;;;;26.33;32.17;98330.75;4993272;28;20073;-71
2023/08/08 00:07:19;;;;;;;1.33;0.55;;;;;;;26.33;32.77;98338.78;4991214;28;20030;-71
2023/08/08 00:09:45;;;;;;;1.92;0.50;;;;;;;26.34;32.43;98337.72;4975386;28;20037;-71
2023/08/08 00:12:11;;;;;;;1.05;0.50;;;;;;;26.43;32.74;98335.56;4975207;28;20414;-70
2023/08/08 00:14:36;;;;;;;2.35;0.50;;;;;;;26.43;32.79;98333.69;4975694;28;20037;-71
2023/08/08 00:17:02;;;;;;;0.85;0.50;;;;;;;26.38;32.35;98316.66;4993352;28;20035;-71
2023/08/08 00:19:28;;;;;;;3.33;0.60;;;;;;;26.36;32.56;98319.56;4959341;28;20035;-71
2023/08/08 00:21:53;;;;;;;3.13;0.60;;;;;;;26.38;32.49;98319.34;4959211;28;20038;-70
2023/08/08 00:24:19;;;;;;;1.63;0.40;;;;;;;26.38;33.03;98325.53;4992076;28;20473;-71
2023/08/08 00:26:44;;;;;;;0.95;0.55;;;;;;;26.38;32.74;98322.84;4992420;28;20038;-71
2023/08/08 00:29:10;;;;;;;2.13;0.50;;;;;;;26.35;33.02;98332.16;4959142;28;20058;-71
2023/08/08 00:31:35;;;;;;;1.40;0.40;;;;;;;26.37;32.79;98337.25;4991282;28;20034;-71
2023/08/08 00:34:01;;;;;;;2.40;0.50;;;;;;;26.35;32.97;98329.47;4958840;28;20039;-71
2023/08/08 00:36:26;;;;;;;1.58;0.60;;;;;;;26.29;33.14;98324.22;4992543;28;20022;-71
2023/08/08 00:38:52;;;;;;;1.02;0.43;;;;;;;26.29;33.43;98337.59;4975330;28;20452;-72
2023/08/08 00:41:17;;;;;;;2.33;0.60;;;;;;;26.30;33.43;98332.03;4958991;28;20027;-72
2023/08/08 00:43:43;;;;;;;1.92;0.60;;;;;;;26.25;33.94;98325.72;4975090;28;20058;-72
2023/08/08 00:46:09;;;;;;;0.70;0.50;;;;;;;26.23;33.96;98322.47;4975233;28;20037;-72
2023/08/08 00:48:34;;;;;;;1.00;0.50;;;;;;;26.24;34.37;98324.91;4975306;28;20545;-72
2023/08/08 00:51:00;;;;;;;1.42;0.60;;;;;;;26.20;34.88;98331.75;4991146;28;20031;-71
2023/08/08 00:53:28;;;;;;;1.10;0.60;;;;;;;26.12;34.83;98332.88;4975032;28;20041;-72
2023/08/08 00:55:54;;;;;;;1.70;0.60;;;;;;;26.12;35.62;98330.22;4975394;28;20026;-72
2023/08/08 00:58:19;;;;;;;0.80;0.50;;;;;;;26.11;35.96;98330.47;4959281;28;20038;-71
2023/08/08 01:00:45;;;;;;;0.73;0.50;;;;;;;26.11;35.53;98330.47;4975007;28;20386;-71
2023/08/08 01:03:10;;;;;;;5.82;0.63;;;;;;;26.07;36.14;98323.94;4991220;28;20039;-71
2023/08/08 01:05:41;;;;;;;7.60;0.80;;;;;;;25.96;36.38;98326.28;4974677;28;20045;-71
2023/08/08 01:08:07;;;;;;;2.15;0.85;;;;;;;25.89;36.71;98325.59;4960100;28;20038;-71
2023/08/08 01:10:40;;;;;;;4.20;0.60;;;;;;;25.80;36.92;98335.75;4974707;28;20425;-71
2023/08/08 01:13:23;;;;;;;1.00;0.60;;;;;;;25.73;37.23;98348.41;4958916;28;20059;-68
2023/08/08 01:15:49;;;;;;;1.92;0.70;;;;;;;25.66;37.24;98339.66;4974782;28;20038;-78
2023/08/08 01:18:15;;;;;;;0.88;0.65;;;;;;;25.71;37.19;98345.13;4974420;28;20102;-78
2023/08/08 01:20:40;;;;;;;3.20;0.80;;;;;;;25.71;37.67;98333.63;4958978;28;20508;-77
2023/08/08 01:23:28;;;;;;;2.65;0.70;;;;;;;25.71;37.40;98349.66;4975072;28;20066;-77
2023/08/08 01:25:54;;;;;;;1.52;0.68;;;;;;;25.69;37.34;98341.06;4959253;28;20137;-78
2023/08/08 01:28:23;;;;;;;3.88;0.80;;;;;;;25.66;37.61;98347.66;4974852;28;20117;-79
2023/08/08 01:30:49;;;;;;;1.35;0.63;;;;;;;25.66;37.65;98362.91;4958589;28;20030;-78
2023/08/08 01:33:14;;;;;;;1.63;0.90;;;;;;;25.62;37.84;98359.84;4991055;28;20104;-78
2023/08/08 01:35:44;;;;;;;3.78;0.57;;;;;;;25.57;37.91;98352.50;4960645;28;20062;-78
2023/08/08 01:38:20;;;;;;;2.08;0.65;;;;;;;25.63;37.86;98358.81;4979168;28;20026;-77
2023/08/08 01:40:46;;;;;;;1.17;0.68;;;;;;;25.58;37.84;98356.78;5010837;28;20101;-78
2023/08/08 01:43:13;;;;;;;1.48;0.70;;;;;;;25.58;37.89;98356.00;4962175;28;20034;-78
2023/08/08 01:45:39;;;;;;;1.42;0.60;;;;;;;25.62;37.93;98362.53;4978304;28;20074;-78
2023/08/08 01:48:08;;;;;;;0.82;0.40;;;;;;;25.63;37.69;98367.66;4978575;28;20456;-78
2023/08/08 01:50:34;;;;;;;3.80;0.80;;;;;;;25.71;37.49;98363.84;4961654;28;20042;-79
2023/08/08 01:52:59;;;;;;;1.50;0.60;;;;;;;25.72;37.82;98360.13;4961864;28;20045;-79
2023/08/08 01:55:25;;;;;;;1.00;0.63;;;;;;;25.76;37.22;98357.81;4994257;28;20034;-79
2023/08/08 01:57:50;;;;;;;0.57;0.40;;;;;;;25.80;37.32;98361.69;4978364;28;20026;-78
2023/08/08 02:00:16;;;;;;;2.28;0.50;;;;;;;25.81;37.38;98361.47;4977822;28;20043;-79
2023/08/08 02:02:42;;;;;;;1.67;0.60;;;;;;;25.84;37.04;98360.22;4962787;28;20512;-78
2023/08/08 02:05:07;;;;;;;0.90;0.60;;;;;;;25.83;37.23;98356.69;4962676;28;20035;-79
2023/08/08 02:07:33;;;;;;;1.00;0.70;;;;;;;25.86;37.44;98362.66;4978044;28;20058;-79
2023/08/08 02:09:58;;;;;;;1.23;0.60;;;;;;;25.87;37.55;98365.09;4961890;28;20405;-78
2023/08/08 02:12:24;;;;;;;1.55;0.70;;;;;;;25.79;37.49;98368.06;4993735;28;20382;-78
2023/08/08 02:14:49;;;;;;;0.85;0.50;;;;;;;25.76;37.51;98361.34;4961182;28;20113;-78
2023/08/08 02:17:15;;;;;;;0.70;0.50;;;;;;;25.82;37.42;98371.13;4961555;28;20413;-79
2023/08/08 02:19:40;;;;;;;0.98;0.70;;;;;;;25.85;37.31;98366.38;4977210;28;20058;-78
2023/08/08 02:22:06;;;;;;;1.50;0.40;;;;;;;25.82;37.19;98367.63;5010251;28;20124;-78
2023/08/08 02:24:31;;;;;;;1.50;0.60;;;;;;;25.83;37.08;98364.72;4977766;28;20030;-79
2023/08/08 02:26:57;;;;;;;1.13;0.70;;;;;;;25.88;36.70;98372.06;4977295;28;20552;-78
2023/08/08 02:29:22;;;;;;;1.25;0.47;;;;;;;25.82;36.85;98378.31;4961558;28;20501;-78
2023/08/08 02:31:48;;;;;;;1.23;0.65;;;;;;;25.76;37.27;98376.53;4961376;28;20100;-77
2023/08/08 02:34:13;;;;;;;1.02;0.60;;;;;;;25.78;37.04;98369.94;4976811;28;20097;-77
2023/08/08 02:36:39;;;;;;;1.35;0.50;;;;;;;25.78;37.28;98382.50;4961457;28;20346;-77
2023/08/08 02:39:04;;;;;;;0.90;0.45;;;;;;;25.77;37.20;98387.00;4977520;28;20406;-78
2023/08/08 02:41:30;;;;;;;1.30;0.63;;;;;;;25.81;36.98;98388.19;4960949;28;20490;-77
2023/08/08 02:43:55;;;;;;;4.28;0.50;;;;;;;25.84;37.47;98386.94;4977279;28;20438;-78
2023/08/08 02:46:21;;;;;;;1.38;0.35;;;;;;;25.80;37.00;98383.88;4960392;28;20073;-77
2023/08/08 02:48:46;;;;;;;0.70;0.50;;;;;;;25.83;37.16;98396.81;4960973;28;20034;-77
2023/08/08 02:51:12;;;;;;;0.82;0.55;;;;;;;25.86;37.04;98400.09;4976560;28;20037;-78
2023/08/08 02:53:37;;;;;;;0.85;0.43;;;;;;;25.86;37.04;98400.91;4960902;28;20031;-78
2023/08/08 02:56:03;;;;;;;1.45;0.50;;;;;;;25.87;37.06;98399.03;4977331;28;20532;-79
2023/08/08 02:58:28;;;;;;;0.85;0.45;;;;;;;25.83;37.26;98402.16;4959841;28;20072;-78
2023/08/08 03:00:54;;;;;;;0.60;0.30;;;;;;;25.81;37.34;98401.56;4961345;28;20026;-69
2023/08/08 03:03:19;;;;;;;0.82;0.40;;;;;;;25.95;38.04;98410.25;4960702;28;20498;-71
2023/08/08 03:05:45;;;;;;;1.05;0.52;;;;;;;26.05;37.87;98399.03;4976505;28;20391;-71
2023/08/08 03:08:11;;;;;;;3.85;0.60;;;;;;;26.11;37.94;98403.50;4976705;28;20030;-71
2023/08/08 03:10:37;;;;;;;0.90;0.50;;;;;;;26.16;38.33;98405.50;4960309;28;20046;-70
2023/08/08 03:13:02;;;;;;;3.30;0.70;;;;;;;26.20;38.00;98413.88;4959732;28;20125;-71
2023/08/08 03:15:28;;;;;;;1.33;0.50;;;;;;;26.26;37.70;98402.25;4976391;28;20046;-68
2023/08/08 03:17:53;;;;;;;0.68;0.32;;;;;;;26.33;37.68;98411.03;4976485;28;20421;-71
2023/08/08 03:20:19;;;;;;;1.48;0.60;;;;;;;26.36;37.78;98415.91;4992668;28;20116;-68
2023/08/08 03:22:44;;;;;;;2.55;0.38;;;;;;;26.37;37.64;98409.50;4993820;28;20085;-68
2023/08/08 03:25:10;;;;;;;5.70;0.30;;;;;;;26.44;37.69;98412.94;4960075;28;20084;-68
2023/08/08 03:27:36;;;;;;;7.63;0.70;;;;;;;26.51;37.61;98415.50;4976232;28;20026;-68
2023/08/08 03:30:01;;;;;;;4.70;0.82;;;;;;;26.51;37.80;98418.97;4976588;28;20117;-72
2023/08/08 03:32:27;;;;;;;2.67;0.45;;;;;;;26.53;37.74;98427.63;4963218;28;20060;-73
2023/08/08 03:34:53;;;;;;;1.15;0.50;;;;;;;26.53;37.63;98427.63;5011362;28;20058;-71
2023/08/08 03:37:18;;;;;;;1.25;0.40;;;;;;;26.48;37.00;98419.44;5011777;28;20153;-71
2023/08/08 03:39:44;;;;;;;0.50;0.25;;;;;;;26.44;37.43;98428.97;4978788;28;20025;-71
2023/08/08 03:42:09;;;;;;;1.90;0.40;;;;;;;26.37;37.33;98422.88;4978834;28;20608;-71
2023/08/08 03:44:35;;;;;;;1.38;0.30;;;;;;;26.43;37.60;98427.34;4978808;28;20042;-71
2023/08/08 03:47:00;;;;;;;1.75;0.20;;;;;;;26.44;37.44;98439.69;5012110;28;20026;-71
2023/08/08 03:49:26;;;;;;;1.88;0.30;;;;;;;26.43;36.97;98438.03;4995319;28;20400;-71
2023/08/08 03:51:51;;;;;;;0.70;0.25;;;;;;;26.43;37.51;98438.03;4995335;28;20026;-71
2023/08/08 03:54:17;;;;;;;2.75;0.40;;;;;;;26.40;37.02;98438.50;5012635;28;20061;-72
2023/08/08 03:56:43;;;;;;;1.13;0.43;;;;;;;26.43;37.36;98435.38;5011142;28;20044;-72
2023/08/08 03:59:09;;;;;;;0.45;0.20;;;;;;;26.42;37.23;98433.72;4994710;28;20034;-72
2023/08/08 04:01:35;;;;;;;0.65;0.10;;;;;;;26.47;37.24;98443.75;4978917;28;20029;-71
2023/08/08 04:04:01;;;;;;;0.50;0.20;;;;;;;26.45;37.18;98449.31;5011472;28;20100;-71
2023/08/08 04:06:26;;;;;;;0.68;0.30;;;;;;;26.47;37.37;98444.59;4994940;28;20057;-72
2023/08/08 04:08:52;;;;;;;0.40;0.30;;;;;;;26.42;36.98;98454.31;5011340;28;20037;-72
2023/08/08 04:11:17;;;;;;;0.40;0.20;;;;;;;26.44;37.04;98462.94;4994971;28;20041;-72
2023/08/08 04:13:43;;;;;;;0.22;0.10;;;;;;;26.45;37.04;98465.38;4978867;28;20535;-72
2023/08/08 04:16:08;;;;;;;0.35;0.20;;;;;;;26.39;37.09;98463.59;5011564;28;20026;-71
2023/08/08 04:18:33;;;;;;;3.63;0.40;;;;;;;26.60;37.28;98469.50;4995410;28;20057;-72
2023/08/08 04:20:59;;;;;;;1.67;0.20;;;;;;;26.71;36.92;98472.25;5007528;28;20042;-72
2023/08/08 04:23:25;;;;;;;2.33;0.38;;;;;;;26.75;36.66;98469.13;4990804;28;20054;-72
2023/08/08 04:25:52;;;;;;;1.05;0.30;;;;;;;26.82;36.44;98483.22;4974883;28;20042;-72
2023/08/08 04:28:18;;;;;;;0.82;0.20;;;;;;;26.82;36.26;98486.72;4959374;28;20053;-72
2023/08/08 04:30:43;;;;;;;0.82;0.22;;;;;;;26.89;36.38;98495.47;4990988;28;20418;-71
2023/08/08 04:33:09;;;;;;;2.45;0.40;;;;;;;26.94;36.54;98499.34;4958437;28;20046;-72
2023/08/08 04:35:34;;;;;;;2.60;0.40;;;;;;;26.94;36.11;98523.44;4992281;28;20152;-72
2023/08/08 04:38:00;;;;;;;0.60;0.20;;;;;;;26.92;36.29;98520.19;4991026;28;20038;-72
2023/08/08 04:40:25;;;;;;;0.52;0.20;;;;;;;26.94;36.19;98520.75;4959577;28;20054;-71
2023/08/08 04:42:51;;;;;;;2.17;0.20;;;;;;;26.95;36.27;98509.81;4974960;28;20034;-72
2023/08/08 04:45:17;;;;;;;2.40;0.40;;;;;;;26.97;36.21;98513.06;4991878;28;20035;-72
2023/08/08 04:47:42;;;;;;;1.40;0.20;;;;;;;26.97;36.21;98513.06;4959182;28;20486;-71
2023/08/08 04:50:08;;;;;;;1.40;0.22;;;;;;;26.99;36.35;98521.69;4991608;28;20045;-72
2023/08/08 04:52:33;;;;;;;0.28;0.20;;;;;;;27.00;36.31;98533.25;4991510;28;20409;-71
2023/08/08 04:54:59;;;;;;;1.65;0.30;;;;;;;26.98;36.36;98529.94;4974753;28;20057;-72
2023/08/08 04:57:24;;;;;;;3.05;0.32;;;;;;;27.00;36.71;98543.97;4991319;28;20093;-72
2023/08/08 04:59:50;;;;;;;0.65;0.30;;;;;;;26.95;37.24;98539.28;4991153;28;20038;-72
2023/08/08 05:02:16;;;;;;;1.02;0.30;;;;;;;26.94;37.45;98551.03;4991339;28;20034;-72
2023/08/08 05:04:41;;;;;;;0.88;0.40;;;;;;;26.91;37.66;98559.50;4991138;28;20125;-71
2023/08/08 05:07:07;;;;;;;2.58;0.50;;;;;;;26.88;37.99;98562.66;4992465;28;20105;-72
2023/08/08 05:09:33;;;;;;;1.95;0.20;;;;;;;26.86;38.14;98567.41;4992957;28;20041;-71
2023/08/08 05:11:58;;;;;;;1.30;0.25;;;;;;;26.82;38.46;98575.09;4995269;28;20065;-72
2023/08/08 05:14:24;;;;;;;2.40;0.47;;;;;;;26.80;38.49;98581.72;4994745;28;20517;-71
2023/08/08 05:16:49;;;;;;;0.80;0.38;;;;;;;26.76;38.79;98572.50;4995420;28;20030;-72
2023/08/08 05:19:15;;;;;;;1.63;0.30;;;;;;;26.73;38.72;98575.66;4995043;28;20046;-71
2023/08/08 05:21:40;;;;;;;0.45;0.20;;;;;;;26.70;38.99;98585.75;4962611;28;20030;-72
2023/08/08 05:24:06;;;;;;;0.88;0.30;;;;;;;26.67;39.21;98585.38;4962574;28;20046;-72
2023/08/08 05:26:31;;;;;;;0.57;0.32;;;;;;;26.65;39.23;98588.28;4978891;28;20533;-71
2023/08/08 05:28:57;;;;;;;0.82;0.30;;;;;;;26.63;39.20;98585.00;4994852;28;20069;-72
2023/08/08 05:31:22;;;;;;;3.60;0.30;;;;;;;26.66;38.87;98592.59;4978915;28;20030;-72
2023/08/08 05:33:48;;;;;;;1.48;0.32;;;;;;;26.63;39.31;98606.41;4994572;28;20046;-72
2023/08/08 05:36:14;;;;;;;1.50;0.30;;;;;;;26.60;39.26;98601.50;4962026;28;20026;-72
2023/08/08 05:38:40;;;;;;;0.82;0.30;;;;;;;26.57;39.03;98612.66;4978064;28;20102;-71
2023/08/08 05:41:06;;;;;;;1.02;0.30;;;;;;;26.54;38.94;98621.94;4978432;28;20053;-72
2023/08/08 05:43:31;;;;;;;2.42;0.30;;;;;;;26.56;38.76;98612.88;4978145;28;20037;-72
2023/08/08 05:45:57;;;;;;;0.90;0.35;;;;;;;26.54;38.88;98616.59;4961674;28;20133;-72
2023/08/08 05:48:22;;;;;;;1.20;0.30;;;;;;;26.57;38.76;98630.56;4993766;28;20057;-72
2023/08/08 05:50:48;;;;;;;2.47;0.30;;;;;;;26.53;38.63;98631.03;4994203;28;20504;-72
2023/08/08 05:53:13;;;;;;;0.50;0.30;;;;;;;26.55;38.46;98646.84;4977815;28;20041;-70
2023/08/08 05:55:41;;;;;;;0.95;0.40;;;;;;;26.53;38.88;98649.78;5010475;28;20042;-72
2023/08/08 05:58:07;;;;;;;0.90;0.40;;;;;;;26.51;38.44;98643.00;4977466;28;20046;-71
2023/08/08 06:00:32;;;;;;;0.45;0.30;;;;;;;26.47;38.68;98647.97;4978007;28;20351;-72
2023/08/08 06:02:58;;;;;;;0.90;0.43;;;;;;;26.46;38.45;98651.69;4993698;28;20136;-72
2023/08/08 06:05:24;;;;;;;1.52;0.40;;;;;;;26.43;38.53;98640.63;4993600;28;20046;-73
2023/08/08 06:07:50;;;;;;;0.57;0.30;;;;;;;26.35;38.19;98642.53;4978071;28;20030;-72
2023/08/08 06:10:15;;;;;;;1.75;0.40;;;;;;;26.40;38.24;98657.13;4975469;28;20508;-72
2023/08/08 06:12:41;;;;;;;0.50;0.40;;;;;;;26.35;38.04;98655.91;4961039;28;20052;-71
2023/08/08 06:15:07;;;;;;;2.83;0.50;;;;;;;26.40;38.11;98662.47;4977547;28;20038;-72
2023/08/08 06:17:32;;;;;;;5.68;0.60;;;;;;;26.37;38.07;98677.09;4959043;28;20034;-73
2023/08/08 06:19:58;;;;;;;5.13;0.60;;;;;;;26.40;38.41;98678.53;4990815;28;20101;-72
2023/08/08 06:22:23;;;;;;;1.27;0.52;;;;;;;26.44;38.59;98677.88;4989514;28;20035;-71
2023/08/08 06:24:49;;;;;;;5.03;0.73;;;;;;;26.45;38.29;98676.81;4990559;28;20035;-71
2023/08/08 06:27:15;;;;;;;4.05;0.60;;;;;;;26.50;37.98;98670.78;4973775;28;20042;-73
2023/08/08 06:29:40;;;;;;;2.30;0.57;;;;;;;26.52;37.86;98682.91;4990896;28;20417;-75
2023/08/08 06:32:06;;;;;;;3.40;0.65;;;;;;;26.54;37.97;98677.34;4991395;28;20038;-72
2023/08/08 06:34:31;;;;;;;4.93;0.85;;;;;;;26.51;37.82;98680.47;4976756;28;20047;-72
2023/08/08 06:36:57;;;;;;;6.20;1.10;;;;;;;26.54;37.83;98685.38;4993785;28;20041;-73
2023/08/08 06:39:23;;;;;;;5.72;0.80;;;;;;;26.49;38.41;98694.06;4993172;28;20045;-73
2023/08/08 06:41:48;;;;;;;9.48;1.08;;;;;;;26.44;38.63;98687.72;4961119;28;20034;-73
2023/08/08 06:44:14;;;;;;;8.23;1.10;;;;;;;26.44;38.53;98701.09;4977223;28;20116;-74
2023/08/08 06:46:39;;;;;;;4.28;0.88;;;;;;;26.43;38.94;98704.84;4961059;28;20504;-73
2023/08/08 06:49:06;;;;;;;3.08;0.95;;;;;;;26.43;38.80;98721.72;4993190;28;20473;-73
2023/08/08 06:51:32;;;;;;;2.35;1.05;;;;;;;26.47;38.78;98716.72;4977415;28;20505;-76
2023/08/08 06:53:57;;;;;;;4.47;1.00;;;;;;;26.44;38.96;98725.19;4993101;28;20117;-73
2023/08/08 06:56:23;;;;;;;9.52;1.17;;;;;;;26.42;39.41;98732.63;4976952;28;20065;-73
2023/08/08 06:58:48;;;;;;;2.20;1.20;;;;;;;26.42;39.52;98746.00;4961339;28;20038;-72
2023/08/08 07:01:14;;;;;;;3.35;1.10;;;;;;;26.38;39.34;98750.16;4977464;28;20469;-73
2023/08/08 07:03:40;;;;;;;3.60;1.20;;;;;;;26.36;39.49;98750.38;4960670;28;20053;-73
2023/08/08 07:06:06;;;;;;;2.13;1.02;;;;;;;26.35;39.39;98759.47;4960306;28;20105;-73
2023/08/08 07:08:32;;;;;;;2.30;1.00;;;;;;;26.35;39.56;98765.63;4976819;28;20073;-73
2023/08/08 07:10:57;;;;;;;2.08;1.08;;;;;;;26.36;39.31;98769.09;4976881;28;20053;-73
2023/08/08 07:13:23;;;;;;;2.65;1.20;;;;;;;26.35;39.45;98772.84;4960022;28;20042;-72
2023/08/08 07:15:49;;;;;;;2.72;1.27;;;;;;;26.40;39.46;98793.59;4976729;28;20034;-73
2023/08/08 07:18:15;;;;;;;8.55;1.35;;;;;;;26.42;39.67;98786.16;4976564;28;20101;-74
2023/08/08 07:20:40;;;;;;;5.55;1.20;;;;;;;26.43;39.69;98793.16;4976715;28;20092;-71
2023/08/08 07:23:06;;;;;;;3.38;1.20;;;;;;;26.37;39.59;98789.50;4976813;28;20489;-73
2023/08/08 07:25:31;;;;;;;10.98;1.23;;;;;;;26.39;39.70;98786.59;4960561;28;20504;-71
2023/08/08 07:27:57;;;;;;;8.77;1.40;;;;;;;26.47;39.80;98797.03;4960505;28;20038;-72
2023/08/08 07:30:22;;;;;;;6.20;1.45;;;;;;;26.50;39.51;98802.78;4960330;28;20030;-72
2023/08/08 07:32:48;;;;;;;4.95;1.40;;;;;;;26.52;39.97;98806.03;4976233;28;20038;-72
2023/08/08 07:35:15;;;;;;;5.97;1.42;;;;;;;26.53;39.61;98805.00;4975901;28;20062;-71
2023/08/08 07:37:40;;;;;;;6.15;1.23;;;;;;;26.62;39.52;98818.94;4960714;28;20133;-71
2023/08/08 07:40:18;;;;;;;8.13;1.38;;;;;;;26.67;39.25;98818.31;4976398;28;20117;-72
2023/08/08 07:42:45;;;;;;;7.18;1.40;;;;;;;26.72;39.46;98807.75;4975709;28;20046;-71
2023/08/08 07:45:10;;;;;;;5.28;1.05;;;;;;;26.79;39.31;98800.47;4992203;28;20034;-73
2023/08/08 07:47:36;;;;;;;5.35;1.08;;;;;;;26.84;39.36;98805.97;4959609;28;20022;-72
2023/08/08 07:50:02;;;;;;;3.42;0.93;;;;;;;26.92;39.45;98804.88;4992399;28;20393;-73
2023/08/08 07:52:27;;;;;;;5.63;1.65;;;;;;;26.98;39.68;98798.63;4992455;28;20042;-71
2023/08/08 07:54:53;;;;;;;11.65;1.65;;;;;;;27.05;39.91;98795.88;4976154;28;20030;-72
2023/08/08 07:57:18;;;;;;;5.25;1.45;;;;;;;27.08;39.76;98790.88;4993694;28;20405;-72
2023/08/08 07:59:44;;;;;;;13.23;1.50;;;;;;;27.15;40.04;98796.19;4975991;28;20038;-73
2023/08/08 08:02:09;;;;;;;6.70;1.30;;;;;;;27.21;39.81;98803.31;4975935;28;20038;-73
2023/08/08 08:04:35;;;;;;;4.93;1.00;;;;;;;27.30;39.62;98806.53;4975799;28;20132;-70
2023/08/08 08:07:00;;;;;;;7.50;1.00;;;;;;;27.35;38.96;98805.88;4975780;28;20405;-72
2023/08/08 08:09:26;;;;;;;11.32;1.33;;;;;;;27.46;39.56;98802.44;4975476;28;20096;-73
2023/08/08 08:11:51;;;;;;;6.30;0.90;;;;;;;27.51;39.50;98804.44;4992047;28;20394;-70
2023/08/08 08:14:17;;;;;;;6.20;1.00;;;;;;;27.57;38.81;98815.09;4959620;28;20054;-70
2023/08/08 08:16:44;;;;;;;5.50;1.00;;;;;;;27.56;38.79;98804.59;4975666;28;20520;-70
2023/08/08 08:19:10;;;;;;;8.48;0.95;;;;;;;27.55;38.69;98797.59;4975798;28;20034;-69
2023/08/08 08:21:35;;;;;;;8.88;1.20;;;;;;;27.55;39.79;98787.69;4959250;28;20049;-70
2023/08/08 08:24:01;;;;;;;9.48;1.20;;;;;;;27.58;40.04;98786.44;4975826;28;20046;-70
2023/08/08 08:26:27;;;;;;;3.72;1.02;;;;;;;27.64;40.75;98795.41;4974756;28;20123;-71
2023/08/08 08:28:53;;;;;;;6.15;1.00;;;;;;;27.68;40.62;98797.41;4975282;28;20042;-72
2023/08/08 08:31:18;;;;;;;12.85;1.15;;;;;;;27.74;39.89;98806.44;4975390;28;20066;-74
2023/08/08 08:33:44;;;;;;;4.78;2.58;;;;;;;27.50;39.09;98822.41;4959602;28;20513;-85
2023/08/08 08:36:09;;;;;;;5.32;2.17;;;;;;;27.24;39.75;98812.78;4975240;28;20051;-76
2023/08/08 08:38:35;;;;;;;4.70;2.72;;;;;;;26.96;40.25;98816.78;4992389;28;20081;-76
2023/08/08 08:41:00;;;;;;;6.32;4.45;;;;;;;26.83;40.91;98819.59;4958717;28;20042;-75
2023/08/08 08:43:26;;;;;;;7.55;4.70;;;;;;;26.75;40.83;98825.25;4974686;28;20030;-76
2023/08/08 08:45:52;;;;;;;5.03;3.80;;;;;;;26.76;40.62;98830.38;4994357;28;20076;-76
2023/08/08 08:48:19;;;;;;;4.78;4.10;;;;;;;26.77;40.41;98828.50;4995486;28;20026;-76
2023/08/08 08:50:45;;;;;;;4.30;3.30;;;;;;;26.88;39.90;98830.44;4963664;28;20049;-75
2023/08/08 08:53:11;;;;;;;4.70;3.47;;;;;;;27.44;38.35;98832.16;4996732;28;20374;-76
2023/08/08 08:55:36;;;;;;;4.18;2.50;;;;;;;27.73;37.90;98824.34;4979155;28;20033;-76
2023/08/08 08:58:02;;;;;;;2.75;2.00;;;;;;;27.78;38.12;98845.13;4979358;28;20106;-76
2023/08/08 09:00:27;;;;;;;3.85;2.25;;;;;;;27.86;37.77;98836.78;4963174;28;20548;-78
2023/08/08 09:02:55;;;;;;;2.83;1.90;;;;;;;28.00;37.14;98848.16;4963684;28;20425;-77
2023/08/08 09:05:23;;;;;;;2.42;1.65;;;;;;;28.13;37.14;98842.63;4995017;28;20132;-77
2023/08/08 09:07:49;;;;;;;2.53;1.55;;;;;;;28.21;37.33;98848.69;4963470;28;20096;-77
2023/08/08 09:10:15;;;;;;;2.25;1.42;;;;;;;28.30;37.44;98853.50;4979210;28;20038;-77
2023/08/08 09:12:41;;;;;;;2.75;1.50;;;;;;;28.34;37.47;98843.97;4995359;28;20032;-77
2023/08/08 09:15:07;;;;;;;2.28;1.15;;;;;;;28.44;37.83;98850.63;4979080;28;20034;-77
2023/08/08 09:17:33;;;;;;;1.45;1.00;;;;;;;28.43;37.68;98844.44;4978985;28;20031;-80
2023/08/08 09:19:58;;;;;;;3.55;0.77;;;;;;;28.43;37.75;98847.13;4979540;28;20121;-78
2023/08/08 09:22:24;;;;;;;2.13;1.00;;;;;;;28.42;37.89;98853.53;4995091;28;20411;-75
2023/08/08 09:24:50;;;;;;;4.13;1.00;;;;;;;28.36;37.68;98843.72;4978756;28;20084;-77
2023/08/08 09:27:16;;;;;;;5.57;0.82;;;;;;;28.30;37.33;98856.19;4978965;28;20101;-77
2023/08/08 09:29:41;;;;;;;1.80;0.90;;;;;;;28.25;37.67;98861.44;4961961;28;20135;-78
2023/08/08 09:32:07;;;;;;;2.42;1.10;;;;;;;28.11;37.65;98849.25;4978741;28;20497;-77
2023/08/08 09:34:32;;;;;;;2.53;1.40;;;;;;;27.98;38.14;98840.34;4978496;28;20100;-77
2023/08/08 09:36:58;;;;;;;2.50;1.35;;;;;;;27.95;37.95;98854.22;4978583;28;20038;-77
2023/08/08 09:39:24;;;;;;;1.77;1.15;;;;;;;27.92;37.20;98837.75;4962526;28;20405;-77
2023/08/08 09:41:50;;;;;;;3.47;1.40;;;;;;;27.92;37.21;98846.59;4962115;28;20030;-77
2023/08/08 09:44:15;;;;;;;2.63;1.27;;;;;;;27.89;36.86;98839.00;4978547;28;20453;-79
2023/08/08 09:46:41;;;;;;;1.67;0.90;;;;;;;27.86;37.12;98836.78;4978482;28;20018;-76
2023/08/08 09:49:06;;;;;;;1.58;0.88;;;;;;;27.82;37.52;98824.88;4962501;28;20050;-78
2023/08/08 09:51:33;;;;;;;1.33;0.77;;;;;;;27.89;36.95;98827.47;4962132;28;20038;-79
2023/08/08 09:53:59;;;;;;;2.72;0.60;;;;;;;27.91;36.45;98831.56;4994675;28;20034;-77
2023/08/08 09:56:25;;;;;;;1.38;0.80;;;;;;;27.95;35.91;98826.59;4960944;28;20096;-77
2023/08/08 09:58:51;;;;;;;1.63;0.70;;;;;;;28.07;36.12;98835.50;4978197;28;20482;-76
2023/08/08 10:01:17;;;;;;;1.63;0.73;;;;;;;28.23;35.24;98833.19;4962217;28;20125;-76
2023/08/08 10:03:43;;;;;;;3.13;0.70;;;;;;;28.34;34.37;98832.41;4978260;28;20030;-78
2023/08/08 10:06:09;;;;;;;1.67;0.50;;;;;;;28.47;33.94;98834.06;4993851;28;20050;-79
2023/08/08 10:08:34;;;;;;;1.15;0.60;;;;;;;28.63;33.55;98836.09;4993966;28;20042;-76
2023/08/08 10:11:00;;;;;;;1.63;0.60;;;;;;;28.85;33.19;98832.81;4961715;28;20485;-77
2023/08/08 10:13:26;;;;;;;1.13;0.60;;;;;;;29.12;32.69;98833.16;4961465;28;20030;-77
2023/08/08 10:15:52;;;;;;;2.00;0.57;;;;;;;29.42;32.10;98832.19;4961059;28;20049;-78
2023/08/08 10:18:17;;;;;;;1.52;0.57;;;;;;;29.64;32.37;98824.28;4994488;28;20042;-80
2023/08/08 10:20:50;;;;;;;2.92;0.50;;;;;;;29.87;31.83;98825.28;4961699;28;20041;-79
2023/08/08 10:23:16;;;;;;;1.40;0.52;;;;;;;30.21;31.11;98826.16;4978257;28;20022;-77
2023/08/08 10:25:48;;;;;;;2.40;0.57;;;;;;;30.35;31.00;98818.59;4977819;28;20065;-78
2023/08/08 10:28:14;;;;;;;2.28;0.70;;;;;;;30.43;30.61;98815.50;4961119;28;20046;-78
2023/08/08 10:31:01;;;;;;;1.23;0.60;;;;;;;30.53;30.51;98816.72;4961375;28;20034;-78
2023/08/08 10:33:39;;;;;;;2.28;0.50;;;;;;;30.55;30.19;98823.47;4977602;28;20042;-77
2023/08/08 10:36:06;;;;;;;3.33;0.57;;;;;;;30.56;30.14;98814.34;4962100;28;20046;-78
2023/08/08 10:38:50;;;;;;;5.57;0.80;;;;;;;30.51;30.38;98808.91;4977390;28;20030;-76
2023/08/08 10:41:19;;;;;;;1.30;0.57;;;;;;;30.43;30.25;98807.44;4977828;28;20149;-77
2023/08/08 10:43:55;;;;;;;4.82;0.80;;;;;;;30.43;30.14;98810.13;4961245;28;20034;-77
2023/08/08 10:46:31;;;;;;;3.00;0.70;;;;;;;30.31;30.74;98799.41;4977582;28;20409;-77
2023/08/08 10:49:01;;;;;;;3.72;0.63;;;;;;;30.33;30.76;98807.25;4977570;28;20026;-77
2023/08/08 10:51:53;;;;;;;2.60;0.70;;;;;;;30.31;30.82;98801.28;4977999;28;20034;-75
2023/08/08 10:54:23;;;;;;;3.28;0.70;;;;;;;30.29;30.66;98798.81;4973074;28;20041;-77
2023/08/08 10:56:52;;;;;;;0.90;0.50;;;;;;;30.27;30.48;98800.16;4977607;28;20212;-79
2023/08/08 10:59:20;;;;;;;3.58;0.70;;;;;;;30.27;30.90;98800.16;4960915;28;20037;-78
2023/08/08 11:01:46;;;;;;;;;;;;;;;30.26;30.99;98798.50;4961937;28;20034;-76
2023/08/08 11:04:12;;;;;;;3.33;0.50;;;;;;;30.24;30.94;98793.38;5009548;28;19983;-77
2023/08/08 11:06:37;;;;;;;3.63;0.70;;;;;;;30.22;31.00;98789.28;4960733;28;20081;-77
2023/08/08 11:09:05;;;;;;;1.30;0.52;;;;;;;30.20;30.89;98786.81;4976602;28;20030;-76
2023/08/08 11:11:36;;;;;;;1.92;0.70;;;;;;;30.17;31.03;98783.81;4992232;28;20046;-78
2023/08/08 11:14:09;;;;;;;2.65;0.82;;;;;;;30.16;31.10;98776.78;4960978;28;20041;-76
2023/08/08 11:16:35;;;;;;;1.17;0.47;;;;;;;30.13;31.02;98776.22;4992850;28;20045;-76
2023/08/08 11:19:00;;;;;;;1.48;0.50;;;;;;;30.08;30.68;98775.34;4976390;28;20417;-77
2023/08/08 11:21:26;;;;;;;1.13;0.50;;;;;;;30.07;30.74;98779.88;4960720;28;20026;-77
2023/08/08 11:23:51;;;;;;;0.77;0.50;;;;;;;30.00;31.27;98770.34;4976348;28;20038;-76
2023/08/08 11:26:18;;;;;;;1.00;0.50;;;;;;;29.99;31.08;98777.59;4992283;28;20074;-76
2023/08/08 11:28:51;;;;;;;0.80;0.50;;;;;;;29.93;30.85;98778.56;4976529;28;20070;-77